Airfield :
LOGIN :

Register | Disclaimer

   EN    FR    IT 

 










Legend :    VFR   Marginal VFR   IFR   Intensive IFR   Very Intensive IFR
Visi :
Ceiling :
>= 8 km
>= 3000ft
5 to 8 km
1000 to 3000 ft
1500m to 5 km
500 to 1000 ft
800 to 1500m
200 to 500 ft
< 800m
< 200 ft
Symbols :   Thunderstorms  Fog  Heavy snow  Heavy precipitations  Wind > 20 kt
SIGMETs :     Misc.  Thunderstorms  Icing  Turbulence  Mountain Waves  Volcanic Ashes






- Airport Elevation : 616 ft
- IATA code : PUF


LFBP - Pau

CURRENT METAR :
  • 170300Z AUTO VRB02KT 9999 BKN032/// OVC041/// 18/15 Q1012 NOSIG

EXPIRED METARs :
  • 170230Z AUTO VRB02KT 9999 BKN032/// OVC040/// 18/15 Q1012 NOSIG
  • 170200Z AUTO 12004KT 9999 OVC033/// 18/15 Q1012 NOSIG
  • 170130Z AUTO VRB02KT 9999 OVC033/// 18/15 Q1012 NOSIG
  • 170100Z AUTO VRB02KT 9999 BKN034/// OVC043/// 19/15 Q1013 NOSIG
  • 170030Z AUTO VRB02KT 9999 BKN034/// OVC040/// 19/14 Q1013 NOSIG
  • 170000Z AUTO VRB02KT 9999 OVC033/// 19/15 Q1013 NOSIG
  • 162330Z AUTO 03004KT 9999 OVC034/// 19/14 Q1013 NOSIG
  • 162300Z AUTO 01004KT 9999 OVC034/// 19/15 Q1013 NOSIG
  • 162230Z AUTO 03004KT 9999 OVC036/// 19/15 Q1013 NOSIG

TAF TAF LFBP
Valid from the 17 at 00:00 until the 18 at 00:00 UTC


162300Z 1700/1724 VRB03KT CAVOK
PROB40
TEMPO 1700/1706 BKN035
BECMG 1706/1708 09007KT



MET'MAP, your aeronautical weather chart ! - Copyright ORBIFLY December 2007 - Disclaimer

ORBIFLY MET'MAP TEAM :

Programming & Development : Alexandra Zaïnal
Original concept : Baudouin d'Aumeries
Technical & hardware support : Manuel Goepfert
Assistance : Marc-Olivier Méhu




SOURCES & CREDITS :

   NOAA